createdAt,value
2018-02-14T00:00:55.816Z,9.00
2018-02-14T00:03:23.243Z,9.18
2018-02-14T00:05:51.440Z,11.07
2018-02-14T00:08:18.883Z,10.27
2018-02-14T00:10:46.320Z,10.75
2018-02-14T00:13:13.751Z,13.85
2018-02-14T00:15:41.171Z,12.30
2018-02-14T00:18:08.624Z,12.15
2018-02-14T00:20:36.052Z,13.48
2018-02-14T00:23:03.495Z,14.35
2018-02-14T00:25:30.915Z,13.38
2018-02-14T00:27:58.360Z,18.52
2018-02-14T00:30:25.793Z,18.02
2018-02-14T00:32:53.223Z,13.98
2018-02-14T00:35:20.659Z,15.13
2018-02-14T00:37:48.103Z,15.07
2018-02-14T00:40:15.523Z,16.15
2018-02-14T00:42:42.954Z,19.80
2018-02-14T00:45:10.395Z,17.60
2018-02-14T00:47:37.830Z,15.13
2018-02-14T00:50:05.273Z,14.73
2018-02-14T00:52:32.703Z,14.52
2018-02-14T00:55:00.141Z,12.50
2018-02-14T00:57:28.331Z,12.20
2018-02-14T00:59:55.767Z,12.02
2018-02-14T01:02:23.960Z,11.63
2018-02-14T01:04:51.403Z,13.07
2018-02-14T01:07:18.840Z,12.85
2018-02-14T01:09:46.259Z,11.82
2018-02-14T01:12:13.695Z,10.75
2018-02-14T01:14:41.131Z,12.27
2018-02-14T01:17:08.563Z,11.23
2018-02-14T01:19:36.775Z,14.50
2018-02-14T01:22:04.391Z,11.23
2018-02-14T01:24:31.829Z,12.95
2018-02-14T01:26:59.260Z,13.13
2018-02-14T01:29:26.717Z,13.40
2018-02-14T01:31:54.144Z,12.75
2018-02-14T01:34:21.576Z,12.75
2018-02-14T01:36:48.999Z,11.02
2018-02-14T01:39:16.446Z,13.45
2018-02-14T01:41:43.871Z,12.43
2018-02-14T01:44:11.307Z,11.02
2018-02-14T01:46:38.760Z,10.30
2018-02-14T01:49:06.189Z,12.20
2018-02-14T01:51:33.616Z,12.40
2018-02-14T01:54:01.056Z,11.75
2018-02-14T01:56:29.318Z,10.93
2018-02-14T01:58:57.520Z,10.50
2018-02-14T02:01:24.949Z,9.30
2018-02-14T02:03:52.383Z,10.50
2018-02-14T02:06:19.814Z,10.82
2018-02-14T02:08:47.260Z,10.57
2018-02-14T02:11:14.701Z,10.20
2018-02-14T02:13:42.144Z,12.15
2018-02-14T02:16:09.576Z,10.55
2018-02-14T02:18:37.771Z,10.45
2018-02-14T02:21:05.191Z,12.37
2018-02-14T02:23:32.624Z,11.52
2018-02-14T02:26:00.072Z,11.50
2018-02-14T02:28:27.509Z,10.30
2018-02-14T02:30:54.927Z,9.63
2018-02-14T02:33:23.137Z,10.30
2018-02-14T02:35:50.564Z,10.90
2018-02-14T02:38:18.767Z,10.43
2018-02-14T02:40:46.199Z,11.57
2018-02-14T02:43:13.638Z,12.68
2018-02-14T02:45:41.068Z,10.70
2018-02-14T02:48:08.494Z,9.98
2018-02-14T02:50:35.924Z,9.68
2018-02-14T02:53:03.345Z,9.32
2018-02-14T02:55:30.782Z,9.82
2018-02-14T02:57:58.655Z,9.30
2018-02-14T03:00:26.087Z,9.55
2018-02-14T03:02:53.516Z,9.77
2018-02-14T03:05:20.948Z,8.60
2018-02-14T03:07:48.367Z,9.85
2018-02-14T03:10:15.807Z,10.00
2018-02-14T03:12:43.223Z,8.23
2018-02-14T03:15:10.661Z,9.90
2018-02-14T03:17:38.090Z,10.90
2018-02-14T03:20:05.515Z,9.70
2018-02-14T03:22:32.940Z,8.75
2018-02-14T03:25:00.395Z,9.65
2018-02-14T03:27:27.824Z,10.10
2018-02-14T03:29:55.260Z,10.43
2018-02-14T03:32:22.687Z,9.93
2018-02-14T03:34:50.116Z,8.18
2018-02-14T03:37:17.545Z,9.65
2018-02-14T03:39:44.985Z,10.27
2018-02-14T03:42:12.407Z,9.50
2018-02-14T03:44:39.838Z,8.80
2018-02-14T03:47:08.032Z,9.60
2018-02-14T03:49:35.515Z,10.32
2018-02-14T03:52:03.152Z,10.20
2018-02-14T03:54:30.622Z,10.73
2018-02-14T03:56:58.043Z,10.52
2018-02-14T03:59:26.264Z,9.88
2018-02-14T04:01:53.724Z,10.77
2018-02-14T04:04:21.174Z,12.20
2018-02-14T04:06:48.629Z,10.15
2018-02-14T04:09:16.068Z,10.55
2018-02-14T04:11:43.494Z,9.90
2018-02-14T04:14:11.737Z,10.98
2018-02-14T04:16:39.151Z,10.35
2018-02-14T04:19:06.843Z,10.27
2018-02-14T04:21:34.299Z,9.25
2018-02-14T04:24:01.951Z,12.90
2018-02-14T04:26:29.378Z,15.40
2018-02-14T04:28:56.815Z,15.85
2018-02-14T04:31:25.012Z,16.23
2018-02-14T04:33:52.493Z,15.80
2018-02-14T04:36:19.920Z,12.25
2018-02-14T04:38:47.359Z,11.60
2018-02-14T04:41:14.865Z,11.50
2018-02-14T04:43:42.625Z,11.02
2018-02-14T04:46:10.067Z,10.07
2018-02-14T04:48:37.535Z,11.18
2018-02-14T04:51:05.180Z,12.18
2018-02-14T04:53:32.647Z,10.98
2018-02-14T04:56:00.144Z,11.63
2018-02-14T04:58:27.568Z,11.23
2018-02-14T05:00:55.016Z,11.43
2018-02-14T05:03:22.443Z,11.25
2018-02-14T05:05:49.911Z,13.05
2018-02-14T05:08:17.504Z,13.30
2018-02-14T05:10:45.260Z,11.90
2018-02-14T05:13:13.027Z,13.02
2018-02-14T05:15:40.531Z,10.02
2018-02-14T05:18:07.965Z,9.30
2018-02-14T05:20:35.406Z,11.20
2018-02-14T05:23:02.836Z,11.90
2018-02-14T05:25:30.272Z,13.07
2018-02-14T05:27:57.699Z,11.88
2018-02-14T05:30:25.145Z,11.45
2018-02-14T05:32:52.587Z,10.30
2018-02-14T05:35:20.052Z,11.75
2018-02-14T05:37:47.492Z,11.82
2018-02-14T05:40:14.963Z,13.32
2018-02-14T05:42:42.399Z,13.80
2018-02-14T05:45:09.876Z,14.35
2018-02-14T05:47:37.302Z,11.50
2018-02-14T05:50:04.739Z,10.05
2018-02-14T05:52:32.212Z,11.75
2018-02-14T05:54:59.704Z,10.73
2018-02-14T05:57:27.145Z,12.52
2018-02-14T05:59:54.611Z,11.38
2018-02-14T06:02:22.049Z,12.13
2018-02-14T06:04:49.483Z,13.00
2018-02-14T06:07:16.907Z,10.82
2018-02-14T06:09:45.111Z,18.15
2018-02-14T06:12:12.544Z,18.87
2018-02-14T06:14:40.051Z,21.92
2018-02-14T06:17:07.500Z,17.60
2018-02-14T06:19:34.965Z,13.75
2018-02-14T06:22:02.431Z,13.02
2018-02-14T06:24:29.881Z,11.68
2018-02-14T06:26:57.329Z,13.43
2018-02-14T06:29:24.785Z,13.60
2018-02-14T06:31:52.226Z,16.50
2018-02-14T06:34:19.661Z,19.45
2018-02-14T06:36:47.147Z,14.77
2018-02-14T06:39:14.576Z,15.68
2018-02-14T06:41:42.020Z,19.10
2018-02-14T06:44:10.224Z,19.12
2018-02-14T06:46:37.693Z,14.25
2018-02-14T06:49:05.100Z,22.87
2018-02-14T06:51:32.527Z,21.12
2018-02-14T06:53:59.961Z,24.20
2018-02-14T06:56:27.446Z,18.75
2018-02-14T06:58:54.881Z,14.75
2018-02-14T07:01:22.342Z,15.73
2018-02-14T07:03:49.860Z,16.92
2018-02-14T07:06:17.331Z,15.85
2018-02-14T07:08:44.763Z,16.15
2018-02-14T07:11:12.983Z,16.60
2018-02-14T07:13:40.435Z,16.55
2018-02-14T07:16:08.051Z,17.20
2018-02-14T07:18:35.467Z,17.20
2018-02-14T07:21:02.935Z,12.18
2018-02-14T07:23:30.847Z,12.82
2018-02-14T07:25:58.348Z,15.48
2018-02-14T07:28:25.783Z,17.12
2018-02-14T07:30:54.787Z,14.90
2018-02-14T07:33:22.312Z,15.10
2018-02-14T07:35:49.817Z,15.65
2018-02-14T07:38:17.251Z,14.00
2018-02-14T07:40:44.737Z,14.95
2018-02-14T07:43:12.116Z,17.95
2018-02-14T07:45:39.552Z,16.80
2018-02-14T07:48:07.002Z,17.20
2018-02-14T07:50:34.452Z,15.20
2018-02-14T07:53:01.878Z,14.85
2018-02-14T07:55:29.376Z,17.17
2018-02-14T07:57:56.832Z,20.67
2018-02-14T08:00:24.235Z,20.35
2018-02-14T08:02:51.670Z,16.67
2018-02-14T08:05:19.116Z,17.55
2018-02-14T08:07:46.547Z,17.00
2018-02-14T08:10:14.011Z,21.30
2018-02-14T08:12:41.459Z,21.80
2018-02-14T08:15:08.891Z,21.60
2018-02-14T08:17:36.348Z,19.25
2018-02-14T08:20:03.775Z,15.75
2018-02-14T08:22:31.391Z,18.10
2018-02-14T08:24:58.824Z,15.48
2018-02-14T08:27:26.340Z,18.60
2018-02-14T08:29:53.751Z,17.62
2018-02-14T08:32:21.189Z,15.52
2018-02-14T08:34:48.620Z,17.23
2018-02-14T08:37:16.063Z,15.00
2018-02-14T08:39:43.487Z,12.98
2018-02-14T08:42:11.728Z,14.90
2018-02-14T08:44:39.161Z,14.50
2018-02-14T08:47:06.599Z,17.00
2018-02-14T08:49:34.029Z,15.40
2018-02-14T08:52:01.472Z,17.42
2018-02-14T08:54:28.905Z,16.35
2018-02-14T08:56:56.347Z,16.98
2018-02-14T08:59:23.797Z,20.17
2018-02-14T09:01:51.231Z,16.02
2018-02-14T09:04:18.665Z,16.70
2018-02-14T09:06:46.106Z,16.62
2018-02-14T09:09:13.536Z,15.77
2018-02-14T09:11:40.981Z,14.77
2018-02-14T09:14:08.404Z,16.25
2018-02-14T09:16:35.846Z,14.38
2018-02-14T09:19:03.315Z,13.05
2018-02-14T09:21:30.756Z,13.07
2018-02-14T09:23:58.176Z,13.15
2018-02-14T09:26:25.637Z,14.35
2018-02-14T09:28:53.057Z,14.02
2018-02-14T09:31:20.514Z,11.90
2018-02-14T09:33:47.915Z,14.30
2018-02-14T09:36:15.348Z,14.35
2018-02-14T09:38:42.775Z,12.93
2018-02-14T09:41:10.227Z,14.38
2018-02-14T09:43:37.656Z,11.82
2018-02-14T09:46:05.094Z,12.75
2018-02-14T09:48:32.523Z,14.18
2018-02-14T09:50:59.968Z,12.93
2018-02-14T09:53:27.404Z,14.35
2018-02-14T09:55:54.880Z,13.60
2018-02-14T09:58:22.290Z,14.20
2018-02-14T10:00:49.733Z,13.57
2018-02-14T10:03:17.201Z,15.68
2018-02-14T10:05:44.632Z,14.20
2018-02-14T10:08:12.072Z,15.07
2018-02-14T10:10:39.529Z,15.82
2018-02-14T10:13:06.952Z,14.15
2018-02-14T10:15:34.388Z,14.68
2018-02-14T10:18:01.855Z,16.42
2018-02-14T10:20:29.256Z,14.70
2018-02-14T10:22:56.859Z,15.65
2018-02-14T10:25:24.291Z,14.55
2018-02-14T10:27:51.732Z,13.43
2018-02-14T10:30:19.156Z,16.37
2018-02-14T10:32:46.596Z,13.62
2018-02-14T10:35:14.027Z,13.55
2018-02-14T10:37:41.463Z,12.90
2018-02-14T10:40:08.893Z,13.77
2018-02-14T10:42:36.335Z,15.57
2018-02-14T10:45:03.768Z,14.00
2018-02-14T10:47:31.980Z,14.00
2018-02-14T10:49:59.415Z,14.38
2018-02-14T10:52:26.847Z,15.18
2018-02-14T10:54:54.282Z,13.38
2018-02-14T10:57:21.722Z,15.57
2018-02-14T10:59:49.167Z,14.60
2018-02-14T11:02:16.604Z,13.95
2018-02-14T11:04:49.702Z,14.90
2018-02-14T11:07:19.068Z,16.15
2018-02-14T11:09:46.483Z,14.67
2018-02-14T11:12:13.923Z,13.17
2018-02-14T11:14:41.384Z,15.40
2018-02-14T11:17:09.593Z,14.53
2018-02-14T11:19:37.047Z,15.03
2018-02-14T11:22:04.483Z,13.23
2018-02-14T11:24:31.912Z,13.87
2018-02-14T11:26:59.358Z,13.10
2018-02-14T11:29:26.779Z,14.60
2018-02-14T11:31:54.217Z,13.60
2018-02-14T11:34:22.506Z,12.10
2018-02-14T11:36:49.987Z,13.77
2018-02-14T11:39:17.442Z,13.05
2018-02-14T11:41:44.871Z,12.00
2018-02-14T11:44:12.306Z,12.17
2018-02-14T11:46:39.745Z,13.33
2018-02-14T11:49:07.176Z,13.60
2018-02-14T11:51:34.698Z,12.63
2018-02-14T11:54:02.146Z,12.68
2018-02-14T11:56:29.572Z,12.65
2018-02-14T11:58:57.033Z,14.67
2018-02-14T12:01:24.439Z,13.47
2018-02-14T12:03:52.695Z,11.60
2018-02-14T12:06:20.132Z,12.60
2018-02-14T12:08:47.547Z,10.03
2018-02-14T12:11:14.968Z,11.40
2018-02-14T12:13:42.397Z,11.63
2018-02-14T12:16:09.827Z,11.97
2018-02-14T12:18:37.255Z,11.70
2018-02-14T12:21:04.672Z,11.60
2018-02-14T12:23:32.128Z,11.57
2018-02-14T12:25:59.555Z,13.10
2018-02-14T12:28:26.980Z,11.10
2018-02-14T12:30:54.411Z,11.47
2018-02-14T12:33:21.847Z,11.70
2018-02-14T12:35:49.283Z,10.90
2018-02-14T12:38:16.720Z,11.50
2018-02-14T12:40:44.221Z,11.10
2018-02-14T12:43:11.813Z,12.83
2018-02-14T12:45:39.304Z,11.30
2018-02-14T12:48:06.748Z,11.20
2018-02-14T12:50:34.163Z,11.80
2018-02-14T12:53:01.591Z,12.70
2018-02-14T12:55:29.045Z,10.73
2018-02-14T12:57:56.595Z,12.30
2018-02-14T13:00:24.048Z,12.03
2018-02-14T13:02:51.485Z,11.77
2018-02-14T13:05:18.904Z,11.30
2018-02-14T13:07:47.199Z,12.53
2018-02-14T13:10:15.359Z,10.63
2018-02-14T13:12:43.563Z,10.50
2018-02-14T13:15:10.988Z,11.67
2018-02-14T13:17:38.421Z,10.47
2018-02-14T13:20:05.863Z,10.53
2018-02-14T13:22:33.296Z,10.97
2018-02-14T13:25:01.269Z,12.90
2018-02-14T13:27:28.703Z,11.50
2018-02-14T13:29:56.152Z,11.20
2018-02-14T13:32:23.639Z,12.50
2018-02-14T13:34:51.040Z,12.13
2018-02-14T13:37:18.476Z,12.20
2018-02-14T13:39:45.945Z,10.87
2018-02-14T13:42:13.379Z,11.53
2018-02-14T13:44:40.804Z,13.00
2018-02-14T13:49:35.223Z,12.57
2018-02-14T13:52:02.690Z,11.50
2018-02-14T13:54:30.201Z,10.40
2018-02-14T13:56:58.398Z,10.23
2018-02-14T13:59:25.823Z,10.70
2018-02-14T14:01:53.242Z,11.90
2018-02-14T14:04:20.676Z,8.70
2018-02-14T14:06:48.115Z,8.20
2018-02-14T14:09:15.556Z,9.87
2018-02-14T14:11:42.986Z,9.50
2018-02-14T14:14:10.456Z,10.67
2018-02-14T14:16:38.646Z,10.90
2018-02-14T14:19:06.076Z,11.00
2018-02-14T14:21:33.524Z,11.87
2018-02-14T14:24:00.954Z,10.35
2018-02-14T14:26:28.388Z,10.47
2018-02-14T14:28:55.824Z,11.37
2018-02-14T14:31:23.280Z,10.20
2018-02-14T14:33:51.471Z,10.60
2018-02-14T14:36:18.903Z,11.33
2018-02-14T14:38:46.341Z,12.93
2018-02-14T14:41:14.523Z,11.83
2018-02-14T14:43:41.959Z,12.63
2018-02-14T14:46:09.384Z,11.00
2018-02-14T14:48:36.825Z,10.97
2018-02-14T14:51:04.244Z,12.40
2018-02-14T14:53:31.677Z,12.47
2018-02-14T14:55:59.099Z,11.97
2018-02-14T14:58:26.528Z,14.00
2018-02-14T15:00:53.960Z,11.63
2018-02-14T15:03:22.189Z,12.40
2018-02-14T15:05:49.611Z,11.30
2018-02-14T15:08:17.055Z,11.83
2018-02-14T15:10:44.481Z,11.80
2018-02-14T15:13:11.991Z,13.90
2018-02-14T15:15:39.450Z,13.47
2018-02-14T15:18:06.847Z,13.00
2018-02-14T15:20:34.292Z,13.50
2018-02-14T15:23:03.268Z,17.50
2018-02-14T15:25:31.760Z,14.07
2018-02-14T15:27:59.216Z,13.63
2018-02-14T15:30:26.619Z,13.10
2018-02-14T15:32:54.818Z,14.13
2018-02-14T15:35:22.322Z,14.07
2018-02-14T15:37:49.853Z,14.20
2018-02-14T15:40:17.268Z,13.50
2018-02-14T15:42:45.468Z,13.60
2018-02-14T15:45:12.962Z,14.10
2018-02-14T15:47:40.384Z,13.60
2018-02-14T15:50:07.809Z,13.23
2018-02-14T15:52:35.332Z,13.93
2018-02-14T15:55:02.776Z,13.60
2018-02-14T15:57:30.211Z,13.80
2018-02-14T15:59:57.700Z,13.50
2018-02-14T16:02:25.177Z,14.00
2018-02-14T16:04:52.601Z,13.50
2018-02-14T16:07:20.036Z,13.47
2018-02-14T16:09:47.490Z,12.17
2018-02-14T16:12:14.932Z,11.90
2018-02-14T16:14:42.364Z,13.73
2018-02-14T16:17:09.783Z,12.47
2018-02-14T16:19:37.268Z,12.53
2018-02-14T16:22:04.800Z,12.20
2018-02-14T16:24:32.245Z,11.97
2018-02-14T16:26:59.671Z,13.43
2018-02-14T16:29:27.139Z,10.77
2018-02-14T16:31:54.557Z,11.73
2018-02-14T16:36:48.956Z,10.80
2018-02-14T16:39:17.168Z,10.53
2018-02-14T16:41:44.594Z,11.20
2018-02-14T16:44:12.800Z,11.30
2018-02-14T16:46:40.231Z,11.00
2018-02-14T16:49:07.672Z,10.53
2018-02-14T16:51:35.914Z,10.25
2018-02-14T16:54:03.425Z,10.80
2018-02-14T16:56:31.588Z,9.95
2018-02-14T16:58:59.019Z,12.15
2018-02-14T17:01:26.464Z,12.27
2018-02-14T17:03:53.896Z,10.23
2018-02-14T17:06:21.339Z,10.55
2018-02-14T17:08:48.792Z,11.82
2018-02-14T17:11:16.219Z,11.55
2018-02-14T17:13:43.662Z,10.88
2018-02-14T17:16:11.888Z,11.82
2018-02-14T17:18:39.337Z,11.80
2018-02-14T17:21:06.757Z,11.02
2018-02-14T17:23:34.314Z,11.55
2018-02-14T17:26:01.740Z,12.70
2018-02-14T17:35:50.208Z,15.02
2018-02-14T17:38:17.715Z,15.35
2018-02-14T17:40:45.134Z,14.45
2018-02-14T17:43:12.592Z,14.55
2018-02-14T17:45:40.037Z,13.45
2018-02-14T17:48:07.470Z,14.15
2018-02-14T17:50:34.933Z,12.43
2018-02-14T17:53:02.433Z,12.43
2018-02-14T17:55:29.864Z,10.57
2018-02-14T17:57:57.347Z,12.27
2018-02-14T18:00:24.771Z,11.98
2018-02-14T18:02:52.236Z,11.77
2018-02-14T18:05:19.779Z,14.82
2018-02-14T18:07:47.201Z,26.60
2018-02-14T18:10:14.707Z,24.23
2018-02-14T18:12:42.327Z,18.90
2018-02-14T18:15:09.819Z,17.27
2018-02-14T18:17:37.282Z,17.90
2018-02-14T18:20:04.784Z,17.37
2018-02-14T18:22:32.290Z,16.55
2018-02-14T18:24:59.726Z,14.90
2018-02-14T18:27:28.112Z,16.15
2018-02-14T18:29:55.552Z,16.60
2018-02-14T18:32:23.039Z,17.62
2018-02-14T18:34:50.462Z,21.70
2018-02-14T18:37:17.891Z,19.15
2018-02-14T18:39:45.332Z,17.75
2018-02-14T18:42:12.768Z,18.80
2018-02-14T18:44:40.196Z,20.00
2018-02-14T18:47:07.648Z,22.75
2018-02-14T18:49:35.162Z,22.15
2018-02-14T18:52:02.611Z,17.70
2018-02-14T18:54:30.079Z,16.35
2018-02-14T18:56:57.499Z,16.65
2018-02-14T18:59:24.932Z,18.17
2018-02-14T19:01:52.427Z,17.52
2018-02-14T19:04:19.874Z,19.27
2018-02-14T19:06:47.742Z,19.83
2018-02-14T19:09:15.176Z,19.58
2018-02-14T19:11:42.636Z,17.67
2018-02-14T19:14:10.073Z,21.45
2018-02-14T19:16:37.531Z,21.12
2018-02-14T19:19:04.954Z,20.50
2018-02-14T19:21:32.367Z,21.62
2018-02-14T19:23:59.883Z,27.37
2018-02-14T19:26:28.065Z,23.90
2018-02-14T19:28:55.505Z,28.12
2018-02-14T19:31:22.962Z,25.85
2018-02-14T19:33:50.552Z,29.33
2018-02-14T19:36:17.969Z,23.25
2018-02-14T19:38:45.399Z,19.48
2018-02-14T19:41:12.818Z,21.05
2018-02-14T19:43:40.250Z,20.73
2018-02-14T19:46:07.675Z,17.95
2018-02-14T19:48:35.099Z,22.92
2018-02-14T19:51:02.529Z,27.15
2018-02-14T19:53:29.959Z,26.25
2018-02-14T19:55:58.159Z,21.65
2018-02-14T19:58:25.596Z,21.92
2018-02-14T20:00:53.055Z,23.70
2018-02-14T20:03:20.488Z,19.58
2018-02-14T20:05:47.934Z,16.83
2018-02-14T20:08:15.364Z,16.60
2018-02-14T20:10:42.788Z,19.00
2018-02-14T20:13:10.214Z,16.12
2018-02-14T20:15:37.643Z,15.57
2018-02-14T20:18:05.080Z,15.10
2018-02-14T20:20:32.515Z,17.75
2018-02-14T20:22:59.984Z,17.08
2018-02-14T20:25:27.463Z,15.70
2018-02-14T20:27:55.880Z,16.25
2018-02-14T20:30:24.072Z,17.30
2018-02-14T20:32:51.555Z,13.48
2018-02-14T20:35:18.980Z,16.92
2018-02-14T20:37:46.395Z,14.68
2018-02-14T20:40:13.864Z,21.17
2018-02-14T20:42:41.254Z,21.35
2018-02-14T20:45:08.684Z,17.20
2018-02-14T20:47:36.112Z,17.27
2018-02-14T20:50:03.548Z,14.35
2018-02-14T20:52:30.973Z,13.02
2018-02-14T20:54:58.403Z,13.40
2018-02-14T20:57:25.834Z,12.80
2018-02-14T20:59:53.275Z,12.52
2018-02-14T21:02:20.709Z,10.73
2018-02-14T21:04:48.144Z,10.93
2018-02-14T21:07:15.560Z,11.02
2018-02-14T21:09:43.028Z,11.70
2018-02-14T21:12:10.490Z,11.65
2018-02-14T21:14:37.932Z,10.85
2018-02-14T21:17:05.367Z,11.32
2018-02-14T21:19:32.795Z,12.55
2018-02-14T21:22:00.214Z,9.95
2018-02-14T21:24:27.652Z,10.20
2018-02-14T21:26:55.088Z,12.43
2018-02-14T21:29:22.552Z,12.15
2018-02-14T21:31:50.952Z,11.32
2018-02-14T21:34:18.364Z,11.82
2018-02-14T21:36:45.821Z,11.48
2018-02-14T21:39:13.323Z,23.50
2018-02-14T21:41:41.421Z,14.20
2018-02-14T21:44:09.614Z,13.90
2018-02-14T21:46:38.662Z,13.90
2018-02-14T21:49:06.146Z,13.60
2018-02-14T21:51:33.620Z,13.45
2018-02-14T21:54:01.044Z,15.05
2018-02-14T21:56:29.299Z,18.00
2018-02-14T21:58:56.798Z,17.33
2018-02-14T22:01:24.228Z,14.20
2018-02-14T22:03:51.663Z,14.57
2018-02-14T22:06:19.094Z,15.85
2018-02-14T22:08:47.143Z,17.48
2018-02-14T22:11:14.601Z,15.30
2018-02-14T22:13:42.046Z,13.70
2018-02-14T22:16:09.467Z,12.88
2018-02-14T22:18:36.904Z,12.88
2018-02-14T22:21:04.681Z,14.05
2018-02-14T22:23:33.178Z,15.48
2018-02-14T22:26:00.598Z,14.45
2018-02-14T22:28:28.032Z,13.13
2018-02-14T22:30:55.500Z,12.85
2018-02-14T22:33:23.036Z,11.82
2018-02-14T22:35:50.464Z,17.08
2018-02-14T22:38:17.937Z,14.25
2018-02-14T22:40:45.413Z,15.27
2018-02-14T22:43:12.854Z,19.15
2018-02-14T22:45:40.284Z,14.90
2018-02-14T22:48:07.702Z,14.10
2018-02-14T22:50:35.171Z,15.38
2018-02-14T22:53:02.805Z,16.02
2018-02-14T22:55:30.228Z,15.23
2018-02-14T22:57:57.659Z,16.42
2018-02-14T23:00:25.155Z,15.00
2018-02-14T23:02:53.190Z,13.50
2018-02-14T23:05:20.648Z,13.73
2018-02-14T23:07:48.079Z,15.07
2018-02-14T23:10:15.503Z,15.02
2018-02-14T23:12:42.927Z,14.82
2018-02-14T23:15:10.348Z,15.52
2018-02-14T23:17:37.780Z,12.98
2018-02-14T23:20:05.208Z,14.90
2018-02-14T23:22:32.630Z,13.25
2018-02-14T23:25:00.084Z,13.60
2018-02-14T23:27:27.653Z,11.88
2018-02-14T23:29:55.127Z,14.80
2018-02-14T23:32:22.600Z,14.60
2018-02-14T23:34:50.040Z,12.43
2018-02-14T23:37:17.472Z,14.00
2018-02-14T23:39:45.087Z,14.43
2018-02-14T23:42:12.501Z,15.75
2018-02-14T23:44:40.686Z,14.95
2018-02-14T23:47:08.120Z,14.93
2018-02-14T23:49:35.704Z,15.30
2018-02-14T23:52:03.143Z,14.13
2018-02-14T23:54:30.716Z,14.38
2018-02-14T23:56:58.933Z,13.95
2018-02-14T23:59:26.363Z,12.93
